Time;durP1;ratioP1;P1;durP2;ratioP2;P2;SDS_P1;SDS_P2;PMS_P1;PMS_P2;Temp;Humidity;BMP_temperature;BMP_pressure;BME280_temperature;BME280_humidity;BME280_pressure;Samples;Min_cycle;Max_cycle;Signal;HPM_P1;HPM_P2
2022/08/01 00:01:16;;;;;;;3.78;3.47;;;20.50;99.90;;;;;;5112912;28;20562;-52
2022/08/01 00:03:44;;;;;;;3.38;3.03;;;20.50;99.90;;;;;;5113339;28;20256;-52
2022/08/01 00:06:13;;;;;;;4.65;3.60;;;20.50;99.90;;;;;;5113512;28;20204;-51
2022/08/01 00:08:41;;;;;;;4.53;3.92;;;20.50;99.90;;;;;;5112045;28;20755;-52
2022/08/01 00:11:09;;;;;;;4.65;3.90;;;20.50;99.90;;;;;;5113944;28;20200;-51
2022/08/01 00:13:37;;;;;;;4.13;3.58;;;20.50;99.90;;;;;;5113188;28;20199;-50
2022/08/01 00:16:07;;;;;;;3.58;3.20;;;20.40;99.90;;;;;;5118867;28;20200;-52
2022/08/01 00:18:36;;;;;;;4.13;3.80;;;20.50;99.90;;;;;;5108545;28;20267;-51
2022/08/01 00:21:04;;;;;;;3.45;3.15;;;20.40;99.90;;;;;;5115148;28;20789;-52
2022/08/01 00:23:32;;;;;;;4.53;3.80;;;20.40;99.90;;;;;;5112590;28;20237;-52
2022/08/01 00:26:01;;;;;;;5.90;4.97;;;20.40;99.90;;;;;;5112397;28;20203;-51
2022/08/01 00:28:29;;;;;;;4.68;4.10;;;20.30;99.90;;;;;;5101990;28;20232;-52
2022/08/01 00:30:57;;;;;;;5.43;3.90;;;20.30;99.90;;;;;;5112352;28;20656;-52
2022/08/01 00:33:26;;;;;;;5.45;4.57;;;20.30;99.90;;;;;;5111457;28;20215;-52
2022/08/01 00:35:54;;;;;;;4.40;3.90;;;20.30;99.90;;;;;;5113057;28;20211;-51
2022/08/01 00:38:22;;;;;;;4.45;3.97;;;20.30;99.90;;;;;;5112203;28;20304;-52
2022/08/01 00:40:51;;;;;;;5.65;4.00;;;20.30;99.90;;;;;;5099103;28;20254;-51
2022/08/01 00:43:19;;;;;;;4.25;3.83;;;20.30;99.90;;;;;;5110923;28;20737;-52
2022/08/01 00:45:47;;;;;;;4.75;4.25;;;20.30;99.90;;;;;;5113331;28;20256;-52
2022/08/01 00:48:15;;;;;;;7.10;4.43;;;20.30;99.90;;;;;;5111989;28;20277;-52
2022/08/01 00:50:45;;;;;;;4.35;3.75;;;20.20;99.90;;;;;;5112563;28;20208;-51
2022/08/01 00:53:14;;;;;;;8.25;4.53;;;20.20;99.90;;;;;;5112625;28;20291;-51
2022/08/01 00:55:50;;;;;;;4.47;3.97;;;20.20;99.90;;;;;;5095707;28;20211;-52
2022/08/01 00:58:18;;;;;;;6.35;4.82;;;20.20;99.90;;;;;;5111554;28;20643;-51
2022/08/01 01:00:47;;;;;;;4.93;4.40;;;20.20;99.90;;;;;;5112051;28;20208;-52
2022/08/01 01:03:22;;;;;;;6.38;4.85;;;20.20;99.90;;;;;;5113044;28;20201;-51
2022/08/01 01:06:25;;;;;;;6.30;4.68;;;20.20;99.90;;;;;;5113100;28;20290;-51
2022/08/01 01:09:07;;;;;;;6.43;5.13;;;20.30;99.90;;;;;;5111655;28;20223;-51
2022/08/01 01:11:45;;;;;;;5.10;4.60;;;20.30;99.90;;;;;;5112470;28;20211;-51
2022/08/01 01:14:27;;;;;;;6.45;5.03;;;20.30;99.90;;;;;;5112416;28;20257;-51
2022/08/01 01:16:56;;;;;;;9.75;5.25;;;20.30;99.90;;;;;;5112159;28;20252;-51
2022/08/01 01:19:31;;;;;;;6.53;5.47;;;20.30;99.90;;;;;;5103418;28;20230;-51
2022/08/01 01:22:22;;;;;;;8.70;6.00;;;20.30;99.90;;;;;;5112339;28;20195;-52
2022/08/01 01:25:06;;;;;;;7.43;5.63;;;20.30;99.90;;;;;;5111613;28;20233;-51
2022/08/01 01:27:46;;;;;;;7.30;6.15;;;20.20;99.90;;;;;;5081666;28;20228;-51
2022/08/01 01:30:16;;;;;;;6.72;5.15;;;20.20;99.90;;;;;;5104102;28;20281;-52
2022/08/01 01:32:49;;;;;;;6.68;6.07;;;20.30;99.90;;;;;;5108001;28;20254;-52
2022/08/01 01:35:22;;;;;;;8.73;5.93;;;20.20;99.90;;;;;;5106397;28;20610;-52
2022/08/01 01:37:54;;;;;;;6.82;6.10;;;20.20;99.90;;;;;;5110924;28;20280;-52
2022/08/01 01:40:24;;;;;;;6.30;5.72;;;20.20;99.90;;;;;;5111797;28;20203;-52
2022/08/01 01:42:53;;;;;;;8.10;6.07;;;20.20;99.90;;;;;;5112065;28;20208;-51
2022/08/01 01:45:27;;;;;;;7.03;6.38;;;20.20;99.90;;;;;;5111419;28;20204;-52
2022/08/01 01:47:57;;;;;;;8.82;6.88;;;20.20;99.90;;;;;;5111286;28;20223;-52
2022/08/01 01:50:26;;;;;;;6.45;5.80;;;20.20;99.90;;;;;;5110952;28;20292;-52
2022/08/01 01:52:56;;;;;;;9.07;6.22;;;20.20;99.90;;;;;;5110862;28;20265;-51
2022/08/01 01:55:26;;;;;;;8.88;6.43;;;20.20;99.90;;;;;;5111723;28;20211;-52
2022/08/01 01:57:56;;;;;;;8.18;5.82;;;20.20;99.90;;;;;;5111932;28;20219;-52
2022/08/01 02:00:27;;;;;;;7.15;6.45;;;20.20;99.90;;;;;;5111794;28;20311;-52
2022/08/01 02:03:00;;;;;;;10.05;6.90;;;20.30;99.90;;;;;;5110889;28;20215;-52
2022/08/01 02:05:29;;;;;;;7.47;6.72;;;20.30;99.90;;;;;;5109989;28;20664;-52
2022/08/01 02:07:58;;;;;;;7.13;6.40;;;20.30;99.90;;;;;;5109578;28;20219;-52
2022/08/01 02:10:27;;;;;;;7.65;6.97;;;20.30;99.90;;;;;;5110998;28;20269;-53
2022/08/01 02:12:59;;;;;;;7.32;6.57;;;20.20;99.90;;;;;;5111005;28;20215;-52
2022/08/01 02:15:30;;;;;;;8.15;7.35;;;20.30;99.90;;;;;;5110726;28;20579;-52
2022/08/01 02:18:00;;;;;;;8.23;7.40;;;20.30;99.90;;;;;;5104738;28;20220;-52
2022/08/01 02:20:31;;;;;;;8.68;7.85;;;20.30;99.90;;;;;;5110817;28;20607;-52
2022/08/01 02:23:05;;;;;;;8.82;7.93;;;20.30;99.90;;;;;;5110385;28;20246;-52
2022/08/01 02:25:39;;;;;;;10.40;8.43;;;20.30;99.90;;;;;;5110736;28;20210;-52
2022/08/01 02:28:31;;;;;;;9.55;8.07;;;20.30;99.90;;;;;;5101555;28;20753;-52
2022/08/01 02:31:04;;;;;;;8.63;7.50;;;20.30;99.90;;;;;;5101084;28;20745;-52
2022/08/01 02:33:39;;;;;;;9.95;8.95;;;20.30;99.90;;;;;;5099451;28;20261;-52
2022/08/01 02:36:08;;;;;;;10.80;9.40;;;20.20;99.90;;;;;;5110421;28;20202;-52
2022/08/01 02:38:59;;;;;;;10.75;9.75;;;20.30;99.90;;;;;;5111976;28;20253;-52
2022/08/01 02:41:29;;;;;;;9.68;8.55;;;20.20;99.90;;;;;;5112179;28;20725;-53
2022/08/01 02:44:03;;;;;;;13.43;9.45;;;20.20;99.90;;;;;;5112470;28;20206;-51
2022/08/01 02:46:37;;;;;;;12.15;9.60;;;20.20;99.90;;;;;;5112003;28;20627;-52
2022/08/01 02:49:11;;;;;;;10.82;9.60;;;20.20;99.90;;;;;;5110362;28;20261;-53
2022/08/01 02:51:41;;;;;;;11.43;8.68;;;20.20;99.90;;;;;;5110090;28;20251;-52
2022/08/01 02:54:13;;;;;;;18.10;10.90;;;20.20;99.90;;;;;;5110345;28;20207;-54
2022/08/01 02:56:43;;;;;;;14.95;10.50;;;20.20;99.90;;;;;;5110100;28;20753;-52
2022/08/01 02:59:14;;;;;;;16.63;11.73;;;20.20;99.90;;;;;;5110439;28;20227;-53
2022/08/01 03:01:49;;;;;;;13.90;9.60;;;20.20;99.90;;;;;;5109961;28;20203;-52
2022/08/01 03:04:19;;;;;;;12.52;11.05;;;20.20;99.90;;;;;;5110344;28;20203;-52
2022/08/01 03:06:48;;;;;;;14.10;10.27;;;20.20;99.90;;;;;;5110550;28;20207;-53
2022/08/01 03:09:18;;;;;;;13.43;10.43;;;20.20;99.90;;;;;;5100237;28;20293;-54
2022/08/01 03:11:47;;;;;;;12.07;10.60;;;20.20;99.90;;;;;;5110151;28;20292;-52
2022/08/01 03:14:16;;;;;;;14.30;10.75;;;20.20;99.90;;;;;;5109702;28;20343;-52
2022/08/01 03:16:47;;;;;;;13.98;10.48;;;20.20;99.90;;;;;;5109919;28;20199;-52
2022/08/01 03:19:18;;;;;;;13.65;10.80;;;20.20;99.90;;;;;;5104698;28;20269;-50
2022/08/01 03:21:49;;;;;;;15.95;11.80;;;20.20;99.90;;;;;;5109136;28;20625;-52
2022/08/01 03:24:19;;;;;;;16.23;11.43;;;20.20;99.90;;;;;;5109895;28;20211;-50
2022/08/01 03:26:48;;;;;;;19.13;10.63;;;20.20;99.90;;;;;;5109581;28;20203;-52
2022/08/01 03:29:19;;;;;;;20.05;12.43;;;20.10;99.90;;;;;;5102287;28;20227;-49
2022/08/01 03:31:50;;;;;;;17.67;11.95;;;20.10;99.90;;;;;;5109563;28;20273;-52
2022/08/01 03:34:21;;;;;;;18.63;11.93;;;20.10;99.90;;;;;;5092814;28;20226;-51
2022/08/01 03:36:52;;;;;;;19.33;12.43;;;20.10;99.90;;;;;;5106013;28;20223;-52
2022/08/01 03:39:25;;;;;;;15.77;10.98;;;20.10;99.90;;;;;;5109005;28;20223;-53
2022/08/01 03:42:00;;;;;;;16.20;11.05;;;20.10;99.90;;;;;;5110039;28;20207;-52
2022/08/01 03:44:32;;;;;;;12.02;10.52;;;20.10;99.90;;;;;;5110357;28;20206;-52
2022/08/01 03:47:05;;;;;;;15.68;11.80;;;20.10;99.90;;;;;;5114632;28;20204;-52
2022/08/01 03:49:36;;;;;;;13.55;11.27;;;20.10;99.90;;;;;;5115834;28;20223;-52
2022/08/01 03:52:08;;;;;;;17.48;12.13;;;20.10;99.90;;;;;;5094618;28;20216;-51
2022/08/01 03:54:38;;;;;;;15.68;10.90;;;20.00;99.90;;;;;;5087592;28;20222;-52
2022/08/01 03:57:07;;;;;;;12.73;11.15;;;19.90;99.90;;;;;;5086810;28;20208;-52
2022/08/01 03:59:57;;;;;;;10.75;8.90;;;20.00;99.90;;;;;;5087226;28;20328;-52
2022/08/01 04:02:28;;;;;;;14.00;11.20;;;20.00;99.90;;;;;;5088984;28;20204;-51
2022/08/01 04:04:56;;;;;;;10.43;9.38;;;20.00;99.90;;;;;;5088343;28;20204;-51
2022/08/01 04:07:26;;;;;;;12.40;9.10;;;20.00;99.90;;;;;;5088443;28;20232;-52
2022/08/01 04:09:54;;;;;;;11.18;8.43;;;20.00;99.90;;;;;;5088077;28;20201;-52
2022/08/01 04:12:23;;;;;;;9.32;8.40;;;20.10;99.90;;;;;;5088921;28;20220;-52
2022/08/01 04:14:51;;;;;;;9.45;8.40;;;20.00;99.90;;;;;;5089082;28;20665;-52
2022/08/01 04:17:23;;;;;;;10.57;7.82;;;20.10;99.90;;;;;;5086810;28;20208;-52
2022/08/01 04:19:57;;;;;;;11.05;9.18;;;20.00;99.90;;;;;;5087544;28;20201;-53
2022/08/01 04:22:25;;;;;;;12.77;9.30;;;20.00;99.90;;;;;;5087437;28;20192;-52
2022/08/01 04:24:58;;;;;;;13.80;9.70;;;20.00;99.90;;;;;;5088362;28;20230;-51
2022/08/01 04:27:30;;;;;;;14.82;10.25;;;20.00;99.90;;;;;;5087697;28;20278;-52
2022/08/01 04:30:23;;;;;;;13.65;9.52;;;20.00;99.90;;;;;;5087195;28;20247;-52
2022/08/01 04:32:53;;;;;;;12.48;8.88;;;20.00;99.90;;;;;;5088148;28;20250;-52
2022/08/01 04:35:25;;;;;;;10.95;7.80;;;20.00;99.90;;;;;;5092074;28;20265;-52
2022/08/01 04:38:17;;;;;;;8.43;7.60;;;20.00;99.90;;;;;;5091440;28;20308;-52
2022/08/01 04:40:46;;;;;;;10.52;7.78;;;20.00;99.90;;;;;;5089321;28;20200;-52
2022/08/01 04:43:15;;;;;;;12.02;9.00;;;20.00;99.90;;;;;;5087653;28;20208;-51
2022/08/01 04:45:44;;;;;;;10.23;7.93;;;20.00;99.90;;;;;;5074373;28;20204;-52
2022/08/01 04:48:16;;;;;;;8.85;7.95;;;20.00;99.90;;;;;;5091565;28;20228;-52
2022/08/01 04:50:45;;;;;;;9.25;8.05;;;20.00;99.90;;;;;;5090699;28;20224;-52
2022/08/01 04:53:16;;;;;;;12.82;8.75;;;20.10;99.90;;;;;;5090698;28;20715;-52
2022/08/01 04:55:46;;;;;;;9.15;8.10;;;20.20;99.90;;;;;;5088595;28;20315;-53
2022/08/01 04:58:15;;;;;;;11.15;8.80;;;20.20;99.90;;;;;;5091722;28;20235;-51
2022/08/01 05:00:46;;;;;;;10.63;8.50;;;20.20;99.90;;;;;;5091097;28;20200;-52
2022/08/01 05:03:14;;;;;;;11.23;8.63;;;20.20;99.90;;;;;;5091740;28;20323;-53
2022/08/01 05:05:42;;;;;;;9.20;8.05;;;20.20;99.90;;;;;;5092369;28;20215;-50
2022/08/01 05:08:12;;;;;;;11.15;9.30;;;20.20;99.90;;;;;;5091620;28;20768;-50
2022/08/01 05:10:40;;;;;;;11.88;8.35;;;20.20;99.90;;;;;;5092430;28;20630;-50
2022/08/01 05:13:08;;;;;;;13.20;9.90;;;20.30;99.90;;;;;;5091449;28;20617;-48
2022/08/01 05:15:37;;;;;;;13.57;9.60;;;20.30;99.90;;;;;;5080998;28;20200;-49
2022/08/01 05:18:06;;;;;;;13.18;8.88;;;20.30;99.90;;;;;;5091154;28;20228;-50
2022/08/01 05:20:36;;;;;;;12.40;8.77;;;20.40;99.90;;;;;;5092029;28;20665;-50
2022/08/01 05:23:05;;;;;;;13.15;8.20;;;20.40;99.90;;;;;;5091837;28;20680;-49
2022/08/01 05:25:39;;;;;;;13.48;8.50;;;20.40;99.90;;;;;;5092221;28;20672;-50
2022/08/01 05:28:25;;;;;;;11.63;7.78;;;20.40;99.90;;;;;;5092879;28;20224;-51
2022/08/01 05:30:54;;;;;;;9.13;8.23;;;20.50;99.90;;;;;;5080351;28;20200;-53
2022/08/01 05:33:23;;;;;;;10.25;7.40;;;20.50;99.90;;;;;;5090698;28;20200;-52
2022/08/01 05:35:51;;;;;;;8.80;7.85;;;20.50;99.90;;;;;;5086710;28;20197;-53
2022/08/01 05:38:19;;;;;;;9.70;7.85;;;20.50;99.90;;;;;;5087558;28;20793;-51
2022/08/01 05:40:48;;;;;;;9.27;7.95;;;20.50;99.90;;;;;;5090729;28;20245;-51
2022/08/01 05:43:16;;;;;;;11.80;7.90;;;20.60;99.90;;;;;;5090151;28;20243;-50
2022/08/01 05:45:45;;;;;;;8.60;7.38;;;20.70;99.90;;;;;;5082204;28;20691;-50
2022/08/01 05:48:14;;;;;;;6.95;6.30;;;20.70;99.90;;;;;;5086484;28;20235;-50
2022/08/01 05:50:42;;;;;;;6.70;5.90;;;20.80;99.90;;;;;;5089498;28;20328;-52
2022/08/01 05:53:10;;;;;;;10.25;7.13;;;20.90;99.90;;;;;;5088736;28;20232;-52
2022/08/01 05:55:38;;;;;;;7.15;6.35;;;21.10;99.90;;;;;;5089566;28;20212;-50
2022/08/01 05:58:08;;;;;;;7.93;6.43;;;21.20;99.90;;;;;;5089846;28;20236;-50
2022/08/01 06:00:39;;;;;;;7.65;6.55;;;21.30;99.90;;;;;;5082904;28;20265;-52
2022/08/01 06:03:07;;;;;;;7.40;6.68;;;21.50;99.90;;;;;;5089675;28;20623;-52
2022/08/01 06:05:35;;;;;;;7.55;6.75;;;21.90;99.90;;;;;;5089939;28;20204;-52
2022/08/01 06:08:04;;;;;;;7.72;6.70;;;22.00;99.90;;;;;;5089962;28;20762;-52
2022/08/01 06:10:32;;;;;;;7.22;6.40;;;22.20;99.90;;;;;;5089762;28;20204;-51
2022/08/01 06:13:02;;;;;;;7.68;6.97;;;22.30;99.90;;;;;;5090465;28;20231;-53
2022/08/01 06:15:32;;;;;;;7.97;7.13;;;22.40;99.90;;;;;;5089452;28;20242;-50
2022/08/01 06:18:00;;;;;;;7.90;7.10;;;22.20;99.90;;;;;;5088972;28;20232;-53
2022/08/01 06:20:28;;;;;;;7.13;6.53;;;22.10;99.90;;;;;;5089457;28;20927;-53
2022/08/01 06:22:56;;;;;;;8.02;6.97;;;22.80;99.90;;;;;;5082904;28;20258;-53
2022/08/01 06:25:26;;;;;;;7.43;6.72;;;23.20;99.90;;;;;;5085798;28;20204;-51
2022/08/01 06:27:55;;;;;;;8.02;7.05;;;23.30;99.90;;;;;;5089890;28;20272;-50
2022/08/01 06:30:23;;;;;;;8.80;8.00;;;23.40;99.90;;;;;;5089028;28;20620;-50
2022/08/01 06:32:55;;;;;;;8.57;7.75;;;23.30;99.90;;;;;;5088153;28;20269;-50
2022/08/01 06:35:23;;;;;;;7.00;6.38;;;23.30;99.90;;;;;;5087153;28;20204;-50
2022/08/01 06:37:51;;;;;;;7.70;7.00;;;23.60;99.90;;;;;;5086822;28;20219;-49
2022/08/01 06:40:19;;;;;;;8.15;7.35;;;23.80;99.90;;;;;;5087699;28;20231;-51
2022/08/01 06:42:47;;;;;;;8.77;7.95;;;23.40;99.90;;;;;;5086434;28;20196;-51
2022/08/01 06:45:16;;;;;;;7.60;6.90;;;23.20;99.90;;;;;;5087907;28;20204;-49
2022/08/01 06:47:46;;;;;;;7.25;6.65;;;23.00;99.90;;;;;;5089976;28;20223;-51
2022/08/01 06:50:19;;;;;;;8.23;7.43;;;22.80;99.90;;;;;;5089892;28;20585;-49
2022/08/01 06:52:47;;;;;;;8.80;7.95;;;22.70;99.90;;;;;;5086582;28;20297;-50
2022/08/01 06:55:16;;;;;;;9.13;7.68;;;22.60;99.90;;;;;;5088287;28;20200;-51
2022/08/01 06:57:49;;;;;;;8.55;7.57;;;22.50;99.90;;;;;;5090209;28;20232;-50
2022/08/01 07:00:22;;;;;;;8.55;6.68;;;22.50;99.90;;;;;;5089614;28;20722;-50
2022/08/01 07:02:50;;;;;;;8.80;8.00;;;22.60;99.90;;;;;;5091267;28;20210;-50
2022/08/01 07:05:20;;;;;;;10.10;7.30;;;22.60;99.90;;;;;;5089185;28;20226;-50
2022/08/01 07:07:48;;;;;;;7.57;6.80;;;22.70;99.90;;;;;;5088133;28;20228;-49
2022/08/01 07:10:16;;;;;;;7.78;7.07;;;23.20;99.90;;;;;;5082101;28;20226;-50
2022/08/01 07:12:45;;;;;;;7.88;7.18;;;23.60;99.90;;;;;;5088342;28;20231;-50
2022/08/01 07:15:14;;;;;;;9.20;8.32;;;23.60;99.90;;;;;;5083162;28;20590;-50
2022/08/01 07:17:43;;;;;;;9.48;8.55;;;23.40;99.90;;;;;;5076212;28;20259;-51
2022/08/01 07:20:13;;;;;;;10.23;9.23;;;23.30;99.90;;;;;;5074055;28;20273;-50
2022/08/01 07:22:45;;;;;;;10.00;9.00;;;23.30;99.90;;;;;;5082007;28;20261;-51
2022/08/01 07:25:15;;;;;;;10.88;9.77;;;23.20;99.90;;;;;;5071798;28;20291;-51
2022/08/01 07:27:44;;;;;;;11.32;10.07;;;23.10;99.90;;;;;;5088220;28;20224;-51
2022/08/01 07:30:13;;;;;;;11.88;10.68;;;23.10;99.90;;;;;;5084251;28;20250;-51
2022/08/01 07:32:41;;;;;;;12.38;10.98;;;23.10;99.90;;;;;;5083127;28;20728;-50
2022/08/01 07:35:10;;;;;;;12.70;11.10;;;23.30;99.90;;;;;;5088096;28;20216;-51
2022/08/01 07:37:38;;;;;;;13.13;11.40;;;24.10;99.90;;;;;;5088332;28;20220;-52
2022/08/01 07:40:19;;;;;;;16.10;12.25;;;24.10;99.90;;;;;;5088404;28;20204;-54
2022/08/01 07:42:47;;;;;;;12.95;11.63;;;23.80;99.90;;;;;;5088704;28;20219;-53
2022/08/01 07:45:16;;;;;;;12.93;11.68;;;23.50;99.90;;;;;;5088915;28;20679;-52
2022/08/01 07:47:44;;;;;;;14.70;13.30;;;23.30;99.90;;;;;;5091466;28;20634;-52
2022/08/01 07:50:13;;;;;;;15.48;13.88;;;23.20;99.90;;;;;;5081210;28;20239;-52
2022/08/01 07:52:41;;;;;;;14.82;13.32;;;23.10;99.90;;;;;;5106053;28;20227;-52
2022/08/01 07:55:10;;;;;;;13.75;12.20;;;23.10;99.90;;;;;;5108672;28;20680;-50
2022/08/01 07:57:45;;;;;;;12.35;11.05;;;23.10;99.90;;;;;;5107753;28;20235;-51
2022/08/01 08:00:14;;;;;;;12.02;10.82;;;23.20;99.90;;;;;;5108598;28;20250;-51
2022/08/01 08:02:42;;;;;;;13.05;11.68;;;23.50;99.90;;;;;;5108530;28;20199;-51
2022/08/01 08:05:10;;;;;;;12.00;10.80;;;23.80;99.90;;;;;;5108864;28;20663;-52
2022/08/01 08:07:39;;;;;;;13.25;11.95;;;23.90;99.90;;;;;;5109276;28;20223;-51
2022/08/01 08:10:08;;;;;;;12.23;10.98;;;23.90;99.90;;;;;;5112313;28;20195;-52
2022/08/01 08:12:36;;;;;;;9.75;8.85;;;23.90;99.90;;;;;;5112238;28;20227;-51
2022/08/01 08:15:06;;;;;;;8.70;7.57;;;24.00;99.90;;;;;;5100937;28;20211;-52
2022/08/01 08:17:35;;;;;;;7.97;7.28;;;24.30;99.90;;;;;;5109452;28;20235;-52
2022/08/01 08:20:05;;;;;;;6.20;5.63;;;24.30;99.90;;;;;;5083444;28;20239;-51
2022/08/01 08:22:37;;;;;;;6.10;5.60;;;24.30;99.90;;;;;;5113801;28;20245;-51
2022/08/01 08:25:07;;;;;;;6.97;6.25;;;24.30;99.90;;;;;;5100653;28;20207;-52
2022/08/01 08:27:36;;;;;;;6.47;5.88;;;24.30;99.90;;;;;;5084908;28;20232;-52
2022/08/01 08:30:08;;;;;;;6.03;5.28;;;24.70;99.90;;;;;;5091411;28;20666;-51
2022/08/01 08:32:36;;;;;;;7.22;6.40;;;25.00;99.90;;;;;;5091637;28;20204;-52
2022/08/01 08:35:06;;;;;;;6.65;6.05;;;24.90;99.90;;;;;;5092199;28;20688;-51
2022/08/01 08:37:35;;;;;;;9.75;6.18;;;24.80;99.90;;;;;;5091516;28;20661;-51
2022/08/01 08:40:13;;;;;;;6.97;6.38;;;25.00;99.90;;;;;;5104985;28;20200;-50
2022/08/01 08:42:42;;;;;;;6.57;5.97;;;24.70;99.90;;;;;;5091348;28;20262;-50
2022/08/01 08:45:13;;;;;;;7.30;6.38;;;25.00;99.90;;;;;;5091521;28;20204;-51
2022/08/01 08:47:46;;;;;;;6.53;5.95;;;25.20;99.90;;;;;;5094716;28;20219;-50
2022/08/01 08:50:14;;;;;;;7.13;6.43;;;25.20;99.90;;;;;;5112520;28;20249;-52
2022/08/01 08:52:45;;;;;;;7.40;6.68;;;25.50;99.90;;;;;;5111459;28;20268;-50
2022/08/01 08:55:15;;;;;;;7.35;6.65;;;25.60;99.90;;;;;;5097286;28;20208;-51
2022/08/01 08:57:45;;;;;;;6.68;6.00;;;25.80;99.90;;;;;;5107273;28;20242;-51
2022/08/01 09:00:16;;;;;;;6.82;6.07;;;25.80;99.90;;;;;;5096415;28;20212;-52
2022/08/01 09:02:46;;;;;;;6.30;5.70;;;25.50;99.90;;;;;;5091103;28;20227;-51
2022/08/01 09:05:14;;;;;;;7.00;6.30;;;25.40;99.90;;;;;;5083899;28;20208;-51
2022/08/01 09:07:46;;;;;;;6.72;6.13;;;25.20;99.90;;;;;;5090873;28;20224;-52
2022/08/01 09:10:15;;;;;;;6.78;6.18;;;25.40;99.90;;;;;;5090105;28;20208;-51
2022/08/01 09:13:05;;;;;;;6.70;6.07;;;25.40;99.90;;;;;;5090451;28;20209;-52
2022/08/01 09:15:42;;;;;;;6.50;5.90;;;25.10;99.90;;;;;;5090592;28;20265;-52
2022/08/01 09:18:27;;;;;;;6.40;5.80;;;24.90;99.90;;;;;;5090036;28;20269;-52
2022/08/01 09:21:10;;;;;;;5.60;5.10;;;24.80;99.90;;;;;;5089691;28;20208;-52
2022/08/01 09:23:42;;;;;;;6.13;5.53;;;24.60;99.90;;;;;;5090241;28;20657;-52
2022/08/01 09:26:28;;;;;;;6.85;5.00;;;24.90;99.90;;;;;;5082248;28;20287;-52
2022/08/01 09:28:58;;;;;;;6.00;5.40;;;25.30;99.90;;;;;;5086091;28;20234;-51
2022/08/01 09:31:29;;;;;;;6.03;5.20;;;25.50;99.90;;;;;;5090141;28;20652;-51
2022/08/01 09:34:07;;;;;;;5.95;5.30;;;25.60;99.90;;;;;;5089979;28;20273;-51
2022/08/01 09:36:48;;;;;;;6.70;4.95;;;26.10;99.90;;;;;;5089458;28;20200;-53
2022/08/01 09:39:16;;;;;;;5.75;5.15;;;25.90;99.90;;;;;;5089764;28;20310;-52
2022/08/01 09:41:44;;;;;;;5.45;5.00;;;25.60;99.90;;;;;;5090313;28;20201;-52
2022/08/01 09:44:13;;;;;;;5.22;4.82;;;25.40;99.90;;;;;;5090275;28;20204;-52
2022/08/01 09:47:02;;;;;;;5.97;5.47;;;25.60;99.90;;;;;;5089057;28;20212;-51
2022/08/01 09:49:36;;;;;;;6.22;5.15;;;25.90;99.90;;;;;;5109698;28;20280;-52
2022/08/01 09:52:20;;;;;;;6.05;5.45;;;26.00;99.90;;;;;;5109891;28;20211;-52
2022/08/01 09:54:57;;;;;;;5.55;5.05;;;26.00;99.90;;;;;;5096492;28;20260;-52
2022/08/01 09:57:25;;;;;;;5.78;5.28;;;26.10;99.90;;;;;;5100784;28;20277;-52
2022/08/01 09:59:55;;;;;;;6.88;5.20;;;26.40;99.90;;;;;;5087551;28;20204;-52
2022/08/01 10:02:34;;;;;;;6.25;5.65;;;26.80;99.90;;;;;;5089161;28;20204;-52
2022/08/01 10:05:04;;;;;;;5.97;5.40;;;26.80;99.90;;;;;;5089448;28;20230;-52
2022/08/01 10:07:36;;;;;;;8.63;5.25;;;27.10;99.90;;;;;;5088893;28;20683;-52
2022/08/01 10:10:12;;;;;;;5.53;5.10;;;27.10;99.90;;;;;;5088553;28;20273;-52
2022/08/01 10:12:42;;;;;;;5.80;5.30;;;27.30;99.90;;;;;;5079818;28;20208;-51
2022/08/01 10:15:16;;;;;;;5.70;5.20;;;27.50;99.90;;;;;;5082676;28;20257;-51
2022/08/01 10:17:53;;;;;;;6.13;5.60;;;27.30;99.90;;;;;;5089338;28;20227;-52
2022/08/01 10:20:26;;;;;;;6.65;6.05;;;27.00;99.90;;;;;;5087702;28;20271;-51
2022/08/01 10:23:00;;;;;;;6.90;6.30;;;26.70;99.90;;;;;;5087978;28;20201;-52
2022/08/01 10:25:41;;;;;;;6.47;5.88;;;26.80;99.90;;;;;;5087973;28;20200;-51
2022/08/01 10:28:16;;;;;;;7.15;6.45;;;26.80;99.90;;;;;;5088944;28;20602;-51
2022/08/01 10:30:51;;;;;;;7.82;7.13;;;26.40;99.90;;;;;;5089456;28;20200;-52
2022/08/01 10:33:24;;;;;;;7.03;6.32;;;26.10;99.90;;;;;;5095535;28;20229;-52
2022/08/01 10:36:12;;;;;;;6.78;6.18;;;25.90;99.90;;;;;;5099576;28;20295;-51
2022/08/01 10:38:41;;;;;;;7.18;6.57;;;25.70;99.90;;;;;;5109658;28;20228;-52
2022/08/01 10:41:14;;;;;;;7.22;6.63;;;25.70;99.90;;;;;;5105408;28;20211;-51
2022/08/01 10:43:43;;;;;;;7.88;7.18;;;26.10;99.90;;;;;;5096598;28;20200;-51
2022/08/01 10:46:13;;;;;;;8.02;6.97;;;25.90;99.90;;;;;;5088611;28;20230;-52
2022/08/01 10:48:50;;;;;;;7.45;6.75;;;25.80;99.90;;;;;;5101089;28;20257;-51
2022/08/01 10:51:21;;;;;;;8.07;7.40;;;25.70;99.90;;;;;;5109853;28;20727;-50
2022/08/01 10:54:11;;;;;;;9.23;8.27;;;25.60;99.90;;;;;;5094566;28;20654;-52
2022/08/01 10:56:43;;;;;;;8.23;7.38;;;25.60;99.90;;;;;;5085663;28;20300;-51
2022/08/01 10:59:16;;;;;;;9.60;8.70;;;25.70;99.90;;;;;;5086831;28;20724;-51
2022/08/01 11:02:06;;;;;;;8.10;7.40;;;26.10;99.90;;;;;;5062882;28;20305;-50
2022/08/01 11:04:49;;;;;;;8.70;7.90;;;26.30;99.90;;;;;;5067622;28;20205;-50
2022/08/01 11:07:21;;;;;;;7.93;7.25;;;26.40;99.90;;;;;;5083522;28;20200;-52
2022/08/01 11:10:04;;;;;;;8.52;7.78;;;26.40;99.90;;;;;;5085772;28;20656;-51
2022/08/01 11:12:42;;;;;;;8.77;7.97;;;26.50;99.90;;;;;;5081697;28;20679;-51
2022/08/01 11:15:26;;;;;;;8.52;7.82;;;26.60;99.90;;;;;;5087780;28;20298;-51
2022/08/01 11:18:01;;;;;;;7.80;7.13;;;26.70;99.90;;;;;;5083494;28;20243;-51
2022/08/01 11:20:34;;;;;;;7.70;7.00;;;26.70;99.90;;;;;;5087882;28;20234;-51
2022/08/01 11:23:19;;;;;;;6.93;6.22;;;26.70;99.90;;;;;;5088747;28;20219;-52
2022/08/01 11:26:09;;;;;;;7.60;7.00;;;26.70;99.90;;;;;;5088923;28;20200;-51
2022/08/01 11:28:39;;;;;;;7.40;6.70;;;26.80;99.90;;;;;;5088481;28;20219;-51
2022/08/01 11:31:28;;;;;;;7.75;6.80;;;26.80;99.90;;;;;;5086181;28;20204;-52
2022/08/01 11:33:56;;;;;;;7.05;6.50;;;27.00;99.90;;;;;;5087511;28;20676;-52
2022/08/01 11:36:31;;;;;;;7.03;6.43;;;27.10;99.90;;;;;;5088835;28;20208;-52
2022/08/01 11:39:20;;;;;;;7.32;6.63;;;27.10;99.90;;;;;;5081911;28;20286;-52
2022/08/01 11:41:49;;;;;;;7.93;7.22;;;27.00;99.90;;;;;;5083025;28;20208;-51
2022/08/01 11:44:25;;;;;;;7.70;7.07;;;26.80;99.90;;;;;;5091885;28;20208;-52
2022/08/01 11:47:07;;;;;;;8.52;7.78;;;26.70;99.90;;;;;;5091690;28;20234;-51
2022/08/01 11:49:59;;;;;;;8.63;7.82;;;26.50;99.90;;;;;;5092978;28;20216;-52
2022/08/01 11:52:31;;;;;;;9.02;8.13;;;26.40;99.90;;;;;;5089652;28;20246;-52
2022/08/01 11:55:10;;;;;;;8.25;7.55;;;26.30;99.90;;;;;;5085473;28;20232;-52
2022/08/01 11:57:43;;;;;;;7.95;7.28;;;26.40;99.90;;;;;;5091721;28;20236;-52
2022/08/01 12:00:18;;;;;;;8.20;7.50;;;26.30;99.90;;;;;;5091804;28;20211;-52
2022/08/01 12:02:47;;;;;;;7.75;7.05;;;26.40;99.90;;;;;;5090935;28;20242;-53
2022/08/01 12:05:20;;;;;;;7.82;7.10;;;26.30;99.90;;;;;;5091475;28;20288;-52
2022/08/01 12:07:54;;;;;;;7.47;6.78;;;26.20;99.90;;;;;;5091062;28;20837;-51
2022/08/01 12:10:25;;;;;;;7.97;7.28;;;26.10;99.90;;;;;;5092089;28;20691;-52
2022/08/01 12:12:55;;;;;;;7.97;7.28;;;26.10;99.90;;;;;;5091913;28;20242;-51
2022/08/01 12:15:26;;;;;;;7.97;7.18;;;26.20;99.90;;;;;;5092016;28;20243;-51
2022/08/01 12:17:58;;;;;;;6.80;6.20;;;26.40;99.90;;;;;;5090723;28;20705;-51
2022/08/01 12:20:28;;;;;;;7.90;7.20;;;26.70;99.90;;;;;;5091577;28;20218;-51
2022/08/01 12:23:01;;;;;;;7.88;7.18;;;26.70;99.90;;;;;;5091521;28;20623;-52
2022/08/01 12:25:29;;;;;;;7.20;6.55;;;26.70;99.90;;;;;;5081218;28;20640;-52
2022/08/01 12:28:01;;;;;;;8.35;7.55;;;26.50;99.90;;;;;;5090597;28;20219;-52
2022/08/01 12:30:34;;;;;;;7.38;6.68;;;26.30;99.90;;;;;;5090487;28;20200;-51
2022/08/01 12:33:05;;;;;;;7.65;6.97;;;26.40;99.90;;;;;;5090481;28;20212;-52
2022/08/01 12:35:34;;;;;;;7.57;6.88;;;26.40;99.90;;;;;;5090558;28;20228;-51
2022/08/01 12:38:06;;;;;;;7.05;6.25;;;26.40;99.90;;;;;;5090119;28;20235;-51
2022/08/01 12:40:35;;;;;;;6.38;5.78;;;26.50;99.90;;;;;;5090573;28;20200;-51
2022/08/01 12:43:09;;;;;;;5.70;5.22;;;26.90;99.90;;;;;;5091655;28;20247;-51
2022/08/01 12:45:55;;;;;;;6.53;5.93;;;27.10;99.90;;;;;;5091660;28;20251;-51
2022/08/01 12:48:26;;;;;;;6.28;5.70;;;27.40;99.90;;;;;;5099432;28;20277;-52
2022/08/01 12:50:57;;;;;;;6.47;5.90;;;27.60;99.90;;;;;;5107643;28;20211;-52
2022/08/01 12:53:27;;;;;;;6.57;6.00;;;27.50;99.90;;;;;;5109564;28;20214;-51
2022/08/01 12:56:09;;;;;;;6.07;5.32;;;27.50;99.90;;;;;;5111190;28;20318;-51
2022/08/01 12:58:38;;;;;;;6.05;5.10;;;27.40;99.90;;;;;;5111297;28;20231;-52
2022/08/01 13:01:09;;;;;;;6.38;5.30;;;27.30;99.90;;;;;;5111163;28;20204;-52
2022/08/01 13:03:37;;;;;;;5.80;5.30;;;27.10;99.90;;;;;;5111499;28;20733;-52
2022/08/01 13:06:12;;;;;;;5.95;5.38;;;27.00;99.90;;;;;;5072410;28;20205;-51
2022/08/01 13:08:42;;;;;;;7.38;5.13;;;26.90;99.90;;;;;;5083607;28;20219;-52